Pagrindinis puslapis
METAR-TAF:

METAR-TAF

Oro uostai :

Kiana, Aliaska, Jungtinės Amerikos Valstijos

platuma: 66-59N, ilguma: 160-26W, Aukštis: 46 m

Dabartinis oras

Ataskaita buvo paskelbta 29 minutes, ne 06:56 UTC
Vėjas 3 kt nuo kintamojo kryptimis
Temperatūra -28°C
Drėgmė 75%
Slėgis 1019 hPa
Matomumas: 16.1 km
Giedras dangus

METAR: PAIK 280656Z AUTO VRB03KT 10SM CLR M28/M31 A3010 RMK AO2 SLP199 T12831311 FZRANO

Laikas: 22:25 (07:25 UTC)


TAF: trūkstamas

Orai ataskaitas ir orų prognozės (METAR, TAF).

turimą stotys yra geltonos ir raudonos taškus žemėlapyje.

Perkelti pele per norėdami pamatyti stoties vardą.

Tada spustelėkite, norėdami matyti oro stebėjimo ir prognozės.

Norėdami pakeisti žemėlapį: spustelėkite ant žalios mygtukų su juodo kryžiaus žemyn,; žalią mygtuką su brūkšneliu, jei norite nutolinti; arba žalių rodyklių gretimoms žemėlapius.


METAR-TAF: